Time;durP1;ratioP1;P1;durP2;ratioP2;P2;SDS_P1;SDS_P2;PMS_P1;PMS_P2;Temp;Humidity;BMP_temperature;BMP_pressure;BME280_temperature;BME280_humidity;BME280_pressure;Samples;Min_cycle;Max_cycle;Signal;HPM_P1;HPM_P2
2024/01/09 00:01:29;;;;;;;14.18;6.82;;;6.90;99.90;;;;;;5014605;28;20398;-80
2024/01/09 00:03:55;;;;;;;17.73;6.38;;;6.90;99.90;;;;;;5010095;28;20021;-81
2024/01/09 00:06:21;;;;;;;12.88;6.38;;;6.90;99.90;;;;;;5031381;28;20026;-80
2024/01/09 00:08:47;;;;;;;17.13;7.68;;;7.00;99.90;;;;;;5036791;28;20049;-80
2024/01/09 00:11:13;;;;;;;15.95;6.95;;;6.90;99.90;;;;;;5031583;28;20052;-80
2024/01/09 00:13:39;;;;;;;16.33;7.85;;;6.90;99.90;;;;;;5030449;28;20051;-81
2024/01/09 00:16:05;;;;;;;14.52;6.28;;;7.00;99.90;;;;;;5011972;28;20069;-80
2024/01/09 00:18:30;;;;;;;14.63;6.45;;;6.90;99.90;;;;;;5020001;28;20034;-80
2024/01/09 00:20:56;;;;;;;16.77;7.15;;;6.90;99.90;;;;;;5017293;28;20032;-80
2024/01/09 00:23:22;;;;;;;19.55;6.88;;;6.90;99.90;;;;;;5017669;28;20108;-80
2024/01/09 00:25:47;;;;;;;17.08;7.78;;;6.90;99.90;;;;;;5031887;28;20495;-81
2024/01/09 00:28:13;;;;;;;15.90;7.53;;;6.90;99.90;;;;;;5007471;28;20092;-80
2024/01/09 00:30:38;;;;;;;16.00;7.25;;;6.80;99.90;;;;;;5028392;28;20025;-80
2024/01/09 00:33:04;;;;;;;19.10;7.82;;;6.90;99.90;;;;;;5030176;28;20025;-80
2024/01/09 00:35:29;;;;;;;21.95;7.90;;;6.90;99.90;;;;;;5013684;28;20025;-81
2024/01/09 00:37:55;;;;;;;14.95;7.78;;;6.90;99.90;;;;;;5015341;28;20071;-81
2024/01/09 00:40:21;;;;;;;14.55;7.40;;;6.90;99.90;;;;;;5013083;28;20121;-80
2024/01/09 00:42:46;;;;;;;15.57;8.05;;;6.90;99.90;;;;;;5030880;28;20029;-80
2024/01/09 00:45:12;;;;;;;15.90;7.25;;;6.90;99.90;;;;;;5015322;28;20074;-80
2024/01/09 00:47:37;;;;;;;16.23;7.53;;;6.90;99.90;;;;;;5014849;28;20025;-81
2024/01/09 00:50:03;;;;;;;16.95;7.00;;;6.90;99.90;;;;;;5012078;28;20560;-82
2024/01/09 00:52:29;;;;;;;18.38;8.00;;;6.90;99.90;;;;;;5026982;28;20472;-81
2024/01/09 00:54:54;;;;;;;15.75;6.63;;;6.90;99.90;;;;;;5015277;28;20026;-80
2024/01/09 00:57:20;;;;;;;16.85;7.38;;;6.90;99.90;;;;;;5022893;28;20025;-81
2024/01/09 00:59:45;;;;;;;17.77;8.52;;;6.90;99.90;;;;;;5014325;28;20021;-81
2024/01/09 01:02:11;;;;;;;20.42;8.15;;;6.90;99.90;;;;;;5031692;28;20041;-80
2024/01/09 01:04:39;;;;;;;20.55;7.38;;;6.90;99.90;;;;;;5028702;28;20037;-81
2024/01/09 01:07:05;;;;;;;14.50;7.28;;;6.90;99.90;;;;;;5013008;28;20026;-80
2024/01/09 01:09:31;;;;;;;21.58;7.95;;;6.90;99.90;;;;;;5031098;28;20510;-80
2024/01/09 01:11:56;;;;;;;19.05;7.82;;;6.90;99.90;;;;;;5013753;28;20058;-81
2024/01/09 01:14:23;;;;;;;18.52;7.43;;;6.90;99.90;;;;;;5012202;28;20014;-80
2024/01/09 01:16:49;;;;;;;20.50;7.75;;;6.90;99.90;;;;;;5012062;28;20619;-80
2024/01/09 01:19:15;;;;;;;20.33;8.35;;;6.80;99.90;;;;;;5015275;28;20029;-81
2024/01/09 01:21:41;;;;;;;19.30;7.97;;;6.80;99.90;;;;;;5013604;28;20014;-80
2024/01/09 01:24:06;;;;;;;23.90;8.23;;;6.80;99.90;;;;;;5014995;28;20030;-81
2024/01/09 01:26:32;;;;;;;12.48;7.15;;;6.90;99.90;;;;;;5013279;28;20009;-80
2024/01/09 01:28:57;;;;;;;16.20;7.50;;;6.80;99.90;;;;;;5029587;28;20022;-81
2024/01/09 01:31:23;;;;;;;18.75;7.38;;;6.80;99.90;;;;;;5012059;28;20017;-81
2024/01/09 01:33:48;;;;;;;21.92;8.82;;;6.80;99.90;;;;;;5015341;28;20067;-80
2024/01/09 01:36:15;;;;;;;20.05;8.27;;;6.80;99.90;;;;;;5031508;28;20021;-81
2024/01/09 01:38:41;;;;;;;24.17;9.20;;;6.80;99.90;;;;;;5014422;28;20051;-81
2024/01/09 01:41:07;;;;;;;15.02;7.72;;;6.80;99.90;;;;;;5013141;28;20085;-80
2024/01/09 01:43:33;;;;;;;18.40;8.30;;;6.90;99.90;;;;;;5035023;28;20537;-80
2024/01/09 01:45:58;;;;;;;18.08;8.63;;;6.90;99.90;;;;;;5019400;28;20025;-81
2024/01/09 01:48:24;;;;;;;16.08;8.15;;;6.80;99.90;;;;;;5035687;28;20017;-80
2024/01/09 01:50:50;;;;;;;13.95;7.50;;;6.90;99.90;;;;;;5015615;28;20104;-80
2024/01/09 01:53:17;;;;;;;20.70;8.02;;;6.80;99.90;;;;;;5016183;28;20403;-81
2024/01/09 01:55:43;;;;;;;23.50;8.32;;;6.80;99.90;;;;;;5020361;28;20021;-80
2024/01/09 01:58:09;;;;;;;19.88;7.43;;;6.90;99.90;;;;;;5034983;28;20071;-80
2024/01/09 02:00:36;;;;;;;20.42;7.45;;;6.80;99.90;;;;;;5018025;28;20475;-80
2024/01/09 02:03:02;;;;;;;16.20;7.85;;;6.80;99.90;;;;;;5013996;28;20030;-80
2024/01/09 02:05:30;;;;;;;18.13;7.75;;;6.80;99.90;;;;;;5032749;28;20032;-81
2024/01/09 02:07:57;;;;;;;20.40;7.00;;;6.80;99.90;;;;;;5029611;28;20064;-80
2024/01/09 02:10:23;;;;;;;19.27;7.82;;;6.80;99.90;;;;;;5039209;28;20475;-80
2024/01/09 02:12:50;;;;;;;16.95;8.40;;;6.80;99.90;;;;;;5012664;28;20023;-80
2024/01/09 02:15:16;;;;;;;20.13;7.82;;;6.80;99.90;;;;;;5018443;28;20022;-80
2024/01/09 02:17:42;;;;;;;22.00;7.03;;;6.80;99.90;;;;;;5033757;28;20013;-81
2024/01/09 02:20:11;;;;;;;17.90;7.53;;;6.80;99.90;;;;;;5030312;28;20099;-80
2024/01/09 02:22:36;;;;;;;21.25;8.82;;;6.90;99.90;;;;;;5015059;28;20013;-81
2024/01/09 02:25:05;;;;;;;19.73;7.50;;;6.80;99.90;;;;;;5019830;28;20036;-80
2024/01/09 02:27:43;;;;;;;21.58;7.72;;;6.80;99.90;;;;;;5034382;28;20022;-80
2024/01/09 02:30:09;;;;;;;18.40;8.18;;;6.80;99.90;;;;;;5031189;28;20029;-80
2024/01/09 02:32:36;;;;;;;14.15;7.05;;;6.80;99.90;;;;;;5015013;28;20089;-81
2024/01/09 02:35:02;;;;;;;24.77;7.97;;;6.80;99.90;;;;;;5038307;28;20033;-80
2024/01/09 02:37:27;;;;;;;16.98;7.80;;;6.80;99.90;;;;;;5019400;28;20025;-81
2024/01/09 02:39:58;;;;;;;17.27;7.60;;;6.80;99.90;;;;;;5018147;28;20469;-80
2024/01/09 02:42:23;;;;;;;17.38;8.02;;;6.80;99.90;;;;;;5014042;28;20404;-80
2024/01/09 02:44:53;;;;;;;20.33;8.18;;;6.70;99.90;;;;;;5014890;28;20503;-81
2024/01/09 02:47:20;;;;;;;19.45;7.55;;;6.70;99.90;;;;;;5016745;28;20036;-80
2024/01/09 02:49:46;;;;;;;16.58;7.97;;;6.80;99.90;;;;;;5016116;28;20092;-81
2024/01/09 02:52:11;;;;;;;17.52;7.85;;;6.80;99.90;;;;;;5035612;28;20472;-80
2024/01/09 02:54:37;;;;;;;21.13;7.95;;;6.80;99.90;;;;;;5014067;28;20056;-81
2024/01/09 02:57:03;;;;;;;18.45;7.38;;;6.80;99.90;;;;;;5014920;28;20048;-80
2024/01/09 02:59:28;;;;;;;19.60;8.00;;;6.80;99.90;;;;;;5020925;28;20044;-80
2024/01/09 03:01:54;;;;;;;16.50;8.05;;;6.80;99.90;;;;;;5032176;28;20089;-80
2024/01/09 03:04:20;;;;;;;19.50;8.73;;;6.80;99.90;;;;;;5032957;28;20033;-80
2024/01/09 03:06:45;;;;;;;17.10;7.97;;;6.80;99.90;;;;;;5031883;28;20021;-80
2024/01/09 03:09:11;;;;;;;17.80;7.63;;;6.80;99.90;;;;;;5014640;28;20457;-80
2024/01/09 03:11:37;;;;;;;18.95;8.25;;;6.80;99.90;;;;;;5038607;28;20040;-81
2024/01/09 03:14:02;;;;;;;16.90;7.97;;;6.80;99.90;;;;;;5016951;28;20025;-80
2024/01/09 03:16:28;;;;;;;19.02;8.40;;;6.80;99.90;;;;;;5033872;28;20074;-81
2024/01/09 03:18:53;;;;;;;16.13;7.43;;;6.70;99.90;;;;;;5032761;28;20026;-80
2024/01/09 03:21:19;;;;;;;16.95;7.63;;;6.80;99.90;;;;;;5013418;28;20068;-80
2024/01/09 03:23:44;;;;;;;16.42;7.45;;;6.80;99.90;;;;;;5016354;28;20049;-80
2024/01/09 03:26:10;;;;;;;23.88;7.82;;;6.80;99.90;;;;;;5030875;28;20026;-80
2024/01/09 03:28:39;;;;;;;18.35;7.47;;;6.80;99.90;;;;;;5015453;28;20017;-80
2024/01/09 03:31:04;;;;;;;21.25;8.57;;;6.70;99.90;;;;;;5010486;28;20094;-80
2024/01/09 03:33:30;;;;;;;19.58;8.57;;;6.70;99.90;;;;;;5034993;28;20056;-80
2024/01/09 03:35:56;;;;;;;19.25;8.65;;;6.70;99.90;;;;;;5013641;28;20033;-80
2024/01/09 03:38:22;;;;;;;18.63;7.97;;;6.70;99.90;;;;;;5035532;28;20026;-79
2024/01/09 03:40:48;;;;;;;22.98;8.50;;;6.80;99.90;;;;;;5013805;28;20033;-81
2024/01/09 03:43:13;;;;;;;21.30;8.27;;;6.70;99.90;;;;;;5015337;28;20062;-80
2024/01/09 03:45:39;;;;;;;17.70;8.23;;;6.80;99.90;;;;;;5013640;28;20045;-80
2024/01/09 03:48:05;;;;;;;21.98;7.78;;;6.80;99.90;;;;;;5016987;28;20029;-80
2024/01/09 03:50:31;;;;;;;19.90;8.27;;;6.70;99.90;;;;;;5033915;28;20017;-80
2024/01/09 03:52:56;;;;;;;19.55;8.23;;;6.70;99.90;;;;;;5013443;28;20048;-81
2024/01/09 03:55:23;;;;;;;20.67;8.32;;;6.70;99.90;;;;;;5013178;28;20396;-80
2024/01/09 03:57:49;;;;;;;25.08;9.23;;;6.80;99.90;;;;;;5008280;28;20483;-81
2024/01/09 04:00:15;;;;;;;19.92;8.52;;;6.70;99.90;;;;;;5030210;28;20030;-80
2024/01/09 04:02:40;;;;;;;18.40;8.40;;;6.70;99.90;;;;;;5011430;28;20022;-80
2024/01/09 04:05:06;;;;;;;23.80;8.80;;;6.70;99.90;;;;;;5012611;28;20017;-80
2024/01/09 04:07:32;;;;;;;17.50;8.20;;;6.70;99.90;;;;;;5013980;28;20024;-80
2024/01/09 04:09:57;;;;;;;26.20;8.10;;;6.70;99.90;;;;;;5013794;28;20076;-80
2024/01/09 04:12:23;;;;;;;21.40;8.90;;;6.70;99.90;;;;;;5020101;28;20033;-79
2024/01/09 04:18:10;;;;;;;17.60;7.85;;;6.80;99.90;;;;;;5024612;28;20034;-80
2024/01/09 04:20:36;;;;;;;20.98;8.27;;;6.70;99.90;;;;;;5032950;28;20021;-80
2024/01/09 04:23:01;;;;;;;19.27;8.43;;;6.70;99.90;;;;;;5012760;28;20075;-81
2024/01/09 04:25:27;;;;;;;24.23;8.30;;;6.70;99.90;;;;;;5033601;28;20032;-81
2024/01/09 04:27:53;;;;;;;19.58;8.63;;;6.70;99.90;;;;;;5014721;28;20022;-80
2024/01/09 04:30:18;;;;;;;22.73;9.18;;;6.70;99.90;;;;;;5034677;28;20502;-81
2024/01/09 04:32:44;;;;;;;18.92;8.98;;;6.70;99.90;;;;;;5011269;28;20040;-80
2024/01/09 04:35:09;;;;;;;22.77;8.75;;;6.70;99.90;;;;;;5012541;28;20036;-80
2024/01/09 04:37:35;;;;;;;22.58;9.10;;;6.70;99.90;;;;;;5030134;28;20021;-80
2024/01/09 04:40:00;;;;;;;21.33;8.80;;;6.70;99.90;;;;;;5012083;28;20026;-81
2024/01/09 04:42:26;;;;;;;17.88;8.13;;;6.70;99.90;;;;;;5034312;28;20025;-80
2024/01/09 04:44:51;;;;;;;18.52;8.20;;;6.70;99.90;;;;;;5032160;28;20088;-80
2024/01/09 04:47:17;;;;;;;21.08;8.73;;;6.70;99.90;;;;;;5029774;28;20029;-81
2024/01/09 04:49:43;;;;;;;23.25;9.20;;;6.70;99.90;;;;;;5015831;28;20075;-80
2024/01/09 04:52:09;;;;;;;22.10;8.30;;;6.70;99.90;;;;;;5030309;28;20017;-80
2024/01/09 04:54:35;;;;;;;19.48;9.18;;;6.60;99.90;;;;;;5033151;28;20021;-81
2024/01/09 04:57:00;;;;;;;20.70;8.93;;;6.70;99.90;;;;;;5007063;28;20032;-80
2024/01/09 04:59:26;;;;;;;17.48;8.85;;;6.70;99.90;;;;;;5013092;28;20017;-81
2024/01/09 05:01:51;;;;;;;20.98;8.48;;;6.60;99.90;;;;;;5018927;28;20025;-80
2024/01/09 05:04:17;;;;;;;18.63;8.77;;;6.60;99.90;;;;;;5011565;28;20045;-81
2024/01/09 05:06:43;;;;;;;22.40;9.60;;;6.60;99.90;;;;;;5031876;28;20075;-80
2024/01/09 05:09:09;;;;;;;19.90;8.70;;;6.70;99.90;;;;;;5010788;28;20047;-80
2024/01/09 05:11:35;;;;;;;18.95;8.95;;;6.70;99.90;;;;;;5012311;28;20022;-80
2024/01/09 05:14:00;;;;;;;23.35;9.15;;;6.70;99.90;;;;;;5033384;28;20029;-80
2024/01/09 05:16:27;;;;;;;22.63;10.05;;;6.70;99.90;;;;;;5030757;28;20063;-80
2024/01/09 05:18:53;;;;;;;22.02;9.52;;;6.70;99.90;;;;;;5010573;28;20403;-80
2024/01/09 05:21:19;;;;;;;26.48;10.20;;;6.70;99.90;;;;;;5029323;28;20037;-80
2024/01/09 05:23:44;;;;;;;19.90;8.38;;;6.60;99.90;;;;;;5009119;28;20076;-80
2024/01/09 05:26:10;;;;;;;23.13;9.00;;;6.60;99.90;;;;;;5011959;28;20084;-81
2024/01/09 05:28:35;;;;;;;20.02;9.23;;;6.70;99.90;;;;;;5017208;28;20028;-80
2024/01/09 05:31:04;;;;;;;21.52;9.30;;;6.70;99.90;;;;;;5011648;28;20037;-80
2024/01/09 05:33:31;;;;;;;18.42;8.18;;;6.60;99.90;;;;;;5013121;28;20487;-80
2024/01/09 05:35:57;;;;;;;23.05;8.75;;;6.60;99.90;;;;;;5012387;28;20033;-80
2024/01/09 05:38:23;;;;;;;18.80;8.48;;;6.60;99.90;;;;;;5036144;28;20091;-81
2024/01/09 05:40:48;;;;;;;24.75;10.23;;;6.60;99.90;;;;;;5034540;28;20026;-81
2024/01/09 05:43:14;;;;;;;20.20;8.88;;;6.60;99.90;;;;;;5014330;28;20144;-82
2024/01/09 05:45:39;;;;;;;20.25;8.90;;;6.60;99.90;;;;;;5014137;28;20010;-82
2024/01/09 05:48:06;;;;;;;22.23;9.63;;;6.60;99.90;;;;;;5009878;28;20029;-80
2024/01/09 05:50:32;;;;;;;22.90;9.32;;;6.60;99.90;;;;;;5028922;28;20128;-80
2024/01/09 05:52:57;;;;;;;26.75;10.32;;;6.60;99.90;;;;;;5018259;28;20056;-80
2024/01/09 05:55:23;;;;;;;20.67;9.05;;;6.60;99.90;;;;;;5016254;28;20025;-80
2024/01/09 05:57:49;;;;;;;21.85;9.43;;;6.70;99.90;;;;;;5029593;28;20092;-81
2024/01/09 06:00:16;;;;;;;22.35;9.57;;;6.70;99.90;;;;;;5008986;28;20548;-82
2024/01/09 06:02:41;;;;;;;22.13;10.00;;;6.60;99.90;;;;;;5016347;28;20120;-80
2024/01/09 06:05:07;;;;;;;22.30;9.13;;;6.60;99.90;;;;;;5027940;28;20144;-80
2024/01/09 06:07:33;;;;;;;21.45;9.15;;;6.60;99.90;;;;;;5015084;28;20406;-80
2024/01/09 06:09:59;;;;;;;24.48;9.07;;;6.60;99.90;;;;;;5033580;28;20022;-80
2024/01/09 06:12:24;;;;;;;22.63;9.15;;;6.60;99.90;;;;;;5029336;28;20028;-81
2024/01/09 06:14:50;;;;;;;25.17;9.43;;;6.60;99.90;;;;;;5017689;28;20025;-80
2024/01/09 06:17:15;;;;;;;18.83;8.48;;;6.60;99.90;;;;;;5030227;28;20048;-81
2024/01/09 06:19:41;;;;;;;20.90;9.45;;;6.60;99.90;;;;;;5013958;28;20017;-80
2024/01/09 06:22:07;;;;;;;20.17;9.10;;;6.60;99.90;;;;;;5014129;28;20022;-81
2024/01/09 06:24:32;;;;;;;23.15;9.95;;;6.60;99.90;;;;;;5012654;28;20060;-80
2024/01/09 06:26:58;;;;;;;22.35;9.40;;;6.60;99.90;;;;;;5028442;28;20372;-80
2024/01/09 06:29:24;;;;;;;26.67;9.77;;;6.60;99.90;;;;;;5016972;28;20028;-80
2024/01/09 06:31:49;;;;;;;25.10;9.45;;;6.60;99.90;;;;;;5035607;28;20433;-80
2024/01/09 06:34:15;;;;;;;19.77;8.90;;;6.60;99.90;;;;;;5035600;28;20029;-80
2024/01/09 06:36:42;;;;;;;25.25;9.57;;;6.60;99.90;;;;;;5032494;28;20124;-80
2024/01/09 06:39:07;;;;;;;27.40;9.80;;;6.60;99.90;;;;;;5035013;28;20045;-80
2024/01/09 06:41:33;;;;;;;24.70;9.23;;;6.60;99.90;;;;;;5017043;28;20060;-81
2024/01/09 06:43:58;;;;;;;19.50;9.82;;;6.60;99.90;;;;;;5032420;28;20052;-80
2024/01/09 06:46:24;;;;;;;24.38;9.52;;;6.50;99.90;;;;;;5014630;28;20042;-80
2024/01/09 06:48:49;;;;;;;24.33;9.82;;;6.50;99.90;;;;;;5033292;28;20014;-80
2024/01/09 06:51:15;;;;;;;25.60;10.10;;;6.60;99.90;;;;;;5013456;28;20017;-80
2024/01/09 06:53:41;;;;;;;22.10;9.95;;;6.60;99.90;;;;;;5017276;28;20026;-80
2024/01/09 06:56:06;;;;;;;22.13;10.02;;;6.50;99.90;;;;;;5032337;28;20029;-81
2024/01/09 06:58:32;;;;;;;26.90;10.40;;;6.60;99.90;;;;;;5014219;28;20021;-80
2024/01/09 07:00:58;;;;;;;22.60;9.90;;;6.60;99.90;;;;;;5029799;28;20056;-81
2024/01/09 07:03:24;;;;;;;22.40;10.00;;;6.60;99.90;;;;;;5013798;28;20028;-81
2024/01/09 07:05:50;;;;;;;22.13;9.32;;;6.60;99.90;;;;;;5037897;28;20032;-81
2024/01/09 07:08:15;;;;;;;25.88;10.02;;;6.60;99.90;;;;;;5034519;28;20018;-81
2024/01/09 07:10:41;;;;;;;21.55;9.30;;;6.60;99.90;;;;;;5013211;28;20032;-80
2024/01/09 07:13:06;;;;;;;20.92;9.43;;;6.50;99.90;;;;;;5031972;28;20033;-80
2024/01/09 07:15:32;;;;;;;25.23;10.05;;;6.50;99.90;;;;;;5013965;28;20021;-81
2024/01/09 07:17:57;;;;;;;26.30;10.48;;;6.50;99.90;;;;;;5013729;28;20026;-81
2024/01/09 07:20:23;;;;;;;23.23;9.23;;;6.50;99.90;;;;;;5029097;28;20033;-79
2024/01/09 07:22:49;;;;;;;26.88;11.13;;;6.50;99.90;;;;;;5013818;28;20018;-81
2024/01/09 07:25:14;;;;;;;28.55;9.43;;;6.60;99.90;;;;;;5014868;28;20018;-80
2024/01/09 07:27:40;;;;;;;22.20;8.95;;;6.50;99.90;;;;;;5013178;28;20511;-80
2024/01/09 07:30:07;;;;;;;24.52;9.90;;;6.50;99.90;;;;;;5032385;28;20116;-80
2024/01/09 07:32:33;;;;;;;27.88;10.90;;;6.50;99.90;;;;;;5013763;28;20025;-80
2024/01/09 07:34:58;;;;;;;26.90;10.13;;;6.50;99.90;;;;;;5031485;28;20021;-81
2024/01/09 07:37:24;;;;;;;18.98;9.20;;;6.50;99.90;;;;;;5031990;28;20044;-80
2024/01/09 07:39:49;;;;;;;19.67;9.90;;;6.50;99.90;;;;;;5014679;28;20503;-80
2024/01/09 07:42:15;;;;;;;21.83;9.48;;;6.50;99.90;;;;;;5011477;28;20056;-80
2024/01/09 07:44:41;;;;;;;22.55;9.55;;;6.50;99.90;;;;;;5035230;28;20017;-80
2024/01/09 07:47:11;;;;;;;24.23;9.18;;;6.50;99.90;;;;;;5031286;28;20045;-81
2024/01/09 07:49:37;;;;;;;27.23;9.93;;;6.50;99.90;;;;;;5008738;28;20054;-81
2024/01/09 07:52:03;;;;;;;27.05;10.45;;;6.50;99.90;;;;;;5029051;28;20032;-80
2024/01/09 07:54:28;;;;;;;21.05;9.27;;;6.50;99.90;;;;;;5012431;28;20104;-80
2024/01/09 07:56:54;;;;;;;21.75;9.88;;;6.50;99.90;;;;;;5011634;28;20017;-81
2024/01/09 07:59:19;;;;;;;19.13;9.35;;;6.50;99.90;;;;;;5032242;28;20060;-82
2024/01/09 08:01:51;;;;;;;30.17;10.18;;;6.50;99.90;;;;;;5013131;28;20071;-81
2024/01/09 08:04:16;;;;;;;24.75;10.07;;;6.50;99.90;;;;;;5007931;28;20017;-80
2024/01/09 08:06:42;;;;;;;26.63;10.13;;;6.50;99.90;;;;;;5028850;28;20533;-80
2024/01/09 08:09:07;;;;;;;22.65;9.93;;;6.50;99.90;;;;;;5010015;28;20030;-81
2024/01/09 08:11:33;;;;;;;25.42;10.63;;;6.50;99.90;;;;;;5014663;28;20554;-80
2024/01/09 08:13:58;;;;;;;26.73;10.20;;;6.50;99.90;;;;;;5014621;28;20086;-80
2024/01/09 08:16:24;;;;;;;24.10;9.32;;;6.50;99.90;;;;;;5012533;28;20025;-80
2024/01/09 08:18:50;;;;;;;24.80;9.40;;;6.50;99.90;;;;;;5016429;28;20056;-81
2024/01/09 08:21:16;;;;;;;25.70;10.45;;;6.50;99.90;;;;;;5029869;28;20486;-81
2024/01/09 08:23:41;;;;;;;22.15;10.20;;;6.50;99.90;;;;;;5031620;28;20014;-80
2024/01/09 08:26:07;;;;;;;28.92;10.43;;;6.50;99.90;;;;;;5005337;28;20479;-80
2024/01/09 08:28:33;;;;;;;21.88;9.93;;;6.50;99.90;;;;;;5026892;28;20032;-81
2024/01/09 08:30:58;;;;;;;27.20;9.30;;;6.50;99.90;;;;;;5007694;28;20158;-81
2024/01/09 08:33:24;;;;;;;23.60;10.00;;;6.50;99.90;;;;;;5025353;28;20022;-80
2024/01/09 08:35:50;;;;;;;23.42;9.48;;;6.50;99.90;;;;;;5010952;28;20028;-80
2024/01/09 08:38:18;;;;;;;22.10;9.15;;;6.50;99.90;;;;;;5012907;28;20030;-81
2024/01/09 08:40:45;;;;;;;21.55;10.57;;;6.50;99.90;;;;;;5012680;28;20030;-80
2024/01/09 08:43:10;;;;;;;25.00;10.30;;;6.50;99.90;;;;;;5011088;28;20037;-80
2024/01/09 08:45:37;;;;;;;27.08;10.27;;;6.50;99.90;;;;;;5012503;28;20017;-81
2024/01/09 08:48:02;;;;;;;23.35;9.98;;;6.50;99.90;;;;;;5036723;28;20579;-80
2024/01/09 08:50:28;;;;;;;21.27;9.98;;;6.50;99.90;;;;;;5013774;28;20033;-81
2024/01/09 08:52:54;;;;;;;20.27;9.68;;;6.60;99.90;;;;;;5029950;28;20380;-80
2024/01/09 08:55:20;;;;;;;26.45;10.85;;;6.50;99.90;;;;;;5013255;28;20029;-84
2024/01/09 08:57:46;;;;;;;29.13;11.50;;;6.50;99.90;;;;;;5010197;28;20108;-82
2024/01/09 09:00:13;;;;;;;20.17;8.95;;;6.50;99.90;;;;;;5014490;28;20028;-84
2024/01/09 09:02:38;;;;;;;25.70;10.30;;;6.50;99.90;;;;;;5007741;28;20032;-79
2024/01/09 09:05:05;;;;;;;24.45;10.00;;;6.50;99.90;;;;;;5010939;28;20048;-81
2024/01/09 09:07:30;;;;;;;28.63;9.98;;;6.40;99.90;;;;;;5015866;28;20037;-81
2024/01/09 09:09:56;;;;;;;24.95;10.55;;;6.40;99.40;;;;;;5013652;28;20506;-81
2024/01/09 09:12:22;;;;;;;22.92;9.40;;;6.40;99.20;;;;;;5028062;28;20029;-82
2024/01/09 09:14:47;;;;;;;29.48;9.82;;;6.40;99.40;;;;;;5030860;28;20391;-82
2024/01/09 09:17:14;;;;;;;26.30;9.77;;;6.40;99.30;;;;;;5029826;28;20014;-81
2024/01/09 09:19:39;;;;;;;28.45;10.93;;;6.40;99.10;;;;;;5034383;28;20071;-82
2024/01/09 09:22:05;;;;;;;25.30;9.73;;;6.50;99.70;;;;;;5014581;28;20025;-81
2024/01/09 09:24:30;;;;;;;25.27;10.20;;;6.50;99.80;;;;;;5013125;28;20030;-83
2024/01/09 09:26:56;;;;;;;31.58;10.73;;;6.50;99.80;;;;;;5014698;28;20025;-82
2024/01/09 09:29:21;;;;;;;26.30;10.38;;;6.50;99.40;;;;;;5015323;28;20028;-81
2024/01/09 09:31:47;;;;;;;27.00;9.98;;;6.40;99.30;;;;;;5012068;28;20032;-81
2024/01/09 09:34:12;;;;;;;27.80;9.98;;;6.40;99.30;;;;;;5015047;28;20413;-81
2024/01/09 09:36:38;;;;;;;22.13;10.30;;;6.50;99.90;;;;;;5027225;28;20035;-81
2024/01/09 09:39:03;;;;;;;32.40;11.82;;;6.50;99.90;;;;;;5028741;28;20052;-81
2024/01/09 09:41:31;;;;;;;25.33;10.15;;;6.50;99.90;;;;;;5030088;28;20032;-81
2024/01/09 09:43:57;;;;;;;26.33;10.57;;;6.50;99.90;;;;;;5014524;28;20017;-83
2024/01/09 09:46:28;;;;;;;23.50;9.68;;;6.50;99.90;;;;;;5014517;28;20018;-82
2024/01/09 09:48:55;;;;;;;21.95;10.35;;;6.50;99.80;;;;;;5014848;28;20072;-83
2024/01/09 09:51:22;;;;;;;31.65;11.30;;;6.50;99.90;;;;;;5029858;28;20018;-81
2024/01/09 09:53:48;;;;;;;30.45;11.70;;;6.50;99.90;;;;;;5029154;28;20280;-81
2024/01/09 09:56:14;;;;;;;25.08;9.80;;;6.50;99.60;;;;;;5030035;28;20542;-81
2024/01/09 09:58:40;;;;;;;23.25;9.80;;;6.50;99.40;;;;;;5011714;28;20494;-82
2024/01/09 10:01:10;;;;;;;24.95;9.90;;;6.50;99.50;;;;;;5025035;28;20025;-82
2024/01/09 10:03:37;;;;;;;22.48;11.07;;;6.60;99.90;;;;;;5029459;28;20406;-83
2024/01/09 10:06:05;;;;;;;25.77;9.68;;;6.70;99.50;;;;;;5016419;28;20033;-81
2024/01/09 10:08:34;;;;;;;22.95;10.18;;;6.70;99.40;;;;;;5014795;28;20025;-81
2024/01/09 10:11:01;;;;;;;24.80;9.48;;;6.70;99.70;;;;;;5031472;28;20034;-82
2024/01/09 10:13:27;;;;;;;29.02;10.35;;;6.80;99.90;;;;;;5029894;28;20032;-81
2024/01/09 10:15:57;;;;;;;27.13;10.48;;;6.80;99.80;;;;;;5017599;28;20025;-81
2024/01/09 10:18:23;;;;;;;26.13;11.07;;;6.80;99.80;;;;;;5030436;28;20017;-82
2024/01/09 10:20:48;;;;;;;24.52;10.40;;;6.80;99.50;;;;;;5016698;28;20403;-81
2024/01/09 10:23:14;;;;;;;33.42;10.27;;;6.80;99.40;;;;;;5012812;28;21372;-81
2024/01/09 10:25:40;;;;;;;26.42;10.57;;;6.80;98.90;;;;;;5014003;28;20017;-82
2024/01/09 10:28:08;;;;;;;30.35;9.80;;;6.90;99.60;;;;;;5028264;28;20018;-83
2024/01/09 10:30:34;;;;;;;26.20;11.05;;;6.90;99.10;;;;;;5032819;28;20083;-81
2024/01/09 10:32:59;;;;;;;27.52;10.60;;;6.80;99.00;;;;;;5016546;28;20030;-81
2024/01/09 10:35:27;;;;;;;27.40;10.18;;;6.90;99.10;;;;;;5012268;28;20025;-84
2024/01/09 10:37:56;;;;;;;23.40;10.48;;;6.90;99.30;;;;;;5030547;28;20049;-81
2024/01/09 10:40:26;;;;;;;21.98;10.38;;;6.90;99.20;;;;;;5031429;28;20109;-82
2024/01/09 10:42:51;;;;;;;25.10;10.03;;;7.00;99.30;;;;;;5030576;28;20045;-82
2024/01/09 10:45:20;;;;;;;29.65;10.48;;;7.00;99.50;;;;;;5015780;28;20295;-80
2024/01/09 10:47:46;;;;;;;23.40;10.65;;;7.00;99.30;;;;;;5027739;28;20028;-84
2024/01/09 10:50:11;;;;;;;26.70;9.80;;;7.00;99.90;;;;;;5015599;28;20020;-81
2024/01/09 10:52:38;;;;;;;22.40;9.30;;;7.10;99.90;;;;;;5030554;28;20428;-81
2024/01/09 10:55:05;;;;;;;30.13;10.73;;;7.10;99.90;;;;;;5032738;28;20021;-81
2024/01/09 10:57:31;;;;;;;21.58;10.18;;;7.10;99.90;;;;;;5015441;28;20060;-81
2024/01/09 11:00:00;;;;;;;25.63;10.93;;;7.10;99.90;;;;;;5015235;28;20407;-81
2024/01/09 11:02:27;;;;;;;26.70;9.65;;;7.10;99.90;;;;;;5015772;28;20045;-81
2024/01/09 11:04:53;;;;;;;24.65;10.18;;;7.20;99.90;;;;;;5011195;28;20041;-81
2024/01/09 11:07:19;;;;;;;26.40;10.50;;;7.20;99.90;;;;;;5032118;28;20063;-82
2024/01/09 11:09:47;;;;;;;27.60;9.88;;;7.20;99.90;;;;;;5013189;28;20025;-81
2024/01/09 11:12:20;;;;;;;24.13;10.13;;;7.20;99.90;;;;;;5028638;28;20033;-81
2024/01/09 11:14:56;;;;;;;22.58;9.48;;;7.20;99.90;;;;;;5013333;28;20491;-84
2024/01/09 11:17:23;;;;;;;23.98;10.13;;;7.20;99.90;;;;;;5015096;28;20439;-83
2024/01/09 11:19:50;;;;;;;26.80;10.48;;;7.20;99.90;;;;;;5014390;28;20013;-82
2024/01/09 11:22:17;;;;;;;23.77;10.50;;;7.20;99.90;;;;;;5016518;28;20025;-82
2024/01/09 11:25:04;;;;;;;27.85;10.57;;;7.20;99.90;;;;;;5014460;28;20028;-83
2024/01/09 11:27:41;;;;;;;27.42;10.05;;;7.20;99.90;;;;;;5007351;28;20447;-81
2024/01/09 11:30:09;;;;;;;24.35;10.10;;;7.20;99.90;;;;;;5030340;28;20054;-81
2024/01/09 11:32:37;;;;;;;25.65;10.52;;;7.20;99.90;;;;;;5028892;28;20491;-81
2024/01/09 11:35:12;;;;;;;27.20;11.50;;;7.20;99.90;;;;;;5013882;28;20610;-81
2024/01/09 11:37:39;;;;;;;21.95;10.05;;;7.30;99.90;;;;;;5009063;28;20615;-81
2024/01/09 11:40:10;;;;;;;25.05;10.30;;;7.30;99.90;;;;;;5010270;28;20607;-81
2024/01/09 11:42:37;;;;;;;25.25;9.32;;;7.30;99.90;;;;;;5015521;28;20395;-82
2024/01/09 11:45:09;;;;;;;28.25;11.20;;;7.30;99.90;;;;;;5014743;28;20033;-82
2024/01/09 11:47:42;;;;;;;24.08;10.18;;;7.30;99.90;;;;;;5031446;28;20029;-81
2024/01/09 11:50:10;;;;;;;26.80;10.05;;;7.30;99.90;;;;;;5019019;28;20491;-82
2024/01/09 11:52:36;;;;;;;25.05;10.50;;;7.30;99.90;;;;;;5025608;28;20032;-82
2024/01/09 11:55:07;;;;;;;26.88;10.43;;;7.30;99.90;;;;;;5028072;28;20442;-82
2024/01/09 11:57:34;;;;;;;23.08;9.45;;;7.30;99.90;;;;;;5013242;28;20022;-81
2024/01/09 12:00:05;;;;;;;25.92;10.73;;;7.30;99.90;;;;;;5014377;28;20029;-82
2024/01/09 12:02:30;;;;;;;;;;;7.30;99.90;;;;;;5010979;28;20594;-82
2024/01/09 12:04:57;;;;;;;20.73;10.48;;;7.30;99.90;;;;;;5029877;28;19952;-81
2024/01/09 12:07:23;;;;;;;22.02;9.23;;;7.30;99.90;;;;;;5024760;28;20028;-81
2024/01/09 12:09:49;;;;;;;31.77;10.40;;;7.30;99.90;;;;;;5010013;28;20030;-82
2024/01/09 12:12:23;;;;;;;24.40;10.57;;;7.30;99.90;;;;;;5017912;28;20013;-81
2024/01/09 12:14:52;;;;;;;24.60;10.57;;;7.20;99.90;;;;;;5010360;28;20022;-82
2024/01/09 12:17:22;;;;;;;12.40;5.40;;;7.20;99.90;;;;;;5013705;28;20550;-79
2024/01/09 12:19:53;;;;;;;21.43;5.63;;;9.00;99.90;;;;;;5015288;28;20032;-79
2024/01/09 12:22:22;;;;;;;19.23;6.78;;;11.00;99.90;;;;;;5031131;28;20389;-79
2024/01/09 12:24:53;;;;;;;19.83;7.45;;;11.40;99.10;;;;;;5009417;28;20498;-78
2024/01/09 12:27:24;;;;;;;20.77;8.07;;;11.70;96.30;;;;;;5012550;28;20051;-84
2024/01/09 12:29:52;;;;;;;24.05;8.70;;;10.30;96.50;;;;;;5015094;28;20013;-83
2024/01/09 12:32:20;;;;;;;20.42;9.10;;;8.80;99.10;;;;;;5025380;28;20017;-83
2024/01/09 12:34:46;;;;;;;26.25;10.18;;;8.10;99.90;;;;;;5012970;28;20053;-83
2024/01/09 12:37:12;;;;;;;20.38;9.45;;;7.70;99.90;;;;;;5029682;28;20510;-83
2024/01/09 12:39:39;;;;;;;24.30;9.15;;;7.60;99.90;;;;;;5029808;28;20028;-82
2024/01/09 12:42:16;;;;;;;20.85;9.13;;;7.40;99.90;;;;;;5024107;28;20080;-83